createdAt,value
2023-04-06T00:01:19.841Z,93206.66
2023-04-06T00:03:47.757Z,93203.44
2023-04-06T00:06:17.186Z,93194.78
2023-04-06T00:08:46.030Z,93193.94
2023-04-06T00:11:15.968Z,93196.31
2023-04-06T00:13:44.093Z,93191.28
2023-04-06T00:16:12.108Z,93180.81
2023-04-06T00:18:40.700Z,93182.19
2023-04-06T00:21:08.612Z,93187.63
2023-04-06T00:23:36.809Z,93175.94
2023-04-06T00:26:05.016Z,93174.25
2023-04-06T00:28:33.141Z,93162.56
2023-04-06T00:31:01.621Z,93170.00
2023-04-06T00:33:29.643Z,93161.09
2023-04-06T00:35:57.770Z,93178.19
2023-04-06T00:38:26.021Z,93176.56
2023-04-06T00:40:53.927Z,93171.22
2023-04-06T00:43:22.123Z,93176.41
2023-04-06T00:45:50.493Z,93160.72
2023-04-06T00:48:18.602Z,93161.75
2023-04-06T00:50:46.826Z,93153.50
2023-04-06T00:53:14.766Z,93161.41
2023-04-06T00:55:43.010Z,93162.63
2023-04-06T00:58:11.184Z,93159.19
2023-04-06T01:00:49.876Z,93163.56
2023-04-06T01:03:23.692Z,93164.00
2023-04-06T01:05:56.948Z,93154.75
2023-04-06T01:08:28.098Z,93158.78
2023-04-06T01:11:08.505Z,93151.53
2023-04-06T01:13:38.401Z,93165.25
2023-04-06T01:16:11.145Z,93152.31
2023-04-06T01:19:01.870Z,93147.84
2023-04-06T01:21:32.984Z,93150.09
2023-04-06T01:24:27.125Z,93144.59
2023-04-06T01:27:05.091Z,93140.19
2023-04-06T01:29:53.669Z,93136.56
2023-04-06T01:32:35.706Z,93132.72
2023-04-06T01:35:03.969Z,93126.28
2023-04-06T01:37:36.049Z,93136.97
2023-04-06T01:40:07.579Z,93130.25
2023-04-06T01:42:45.228Z,93126.81
2023-04-06T01:45:17.843Z,93129.00
2023-04-06T01:47:47.132Z,93130.41
2023-04-06T01:50:15.647Z,93128.97
2023-04-06T01:52:47.696Z,93135.59
2023-04-06T01:55:16.977Z,93136.81
2023-04-06T01:58:07.945Z,93131.16
2023-04-06T02:00:39.670Z,93122.91
2023-04-06T02:03:08.051Z,93119.47
2023-04-06T02:05:39.106Z,93115.25
2023-04-06T02:08:19.673Z,93120.13
2023-04-06T02:10:48.215Z,93130.03
2023-04-06T02:13:26.333Z,93132.56
2023-04-06T02:15:55.248Z,93122.72
2023-04-06T02:18:23.669Z,93117.91
2023-04-06T02:20:52.103Z,93113.88
2023-04-06T02:23:20.719Z,93119.16
2023-04-06T02:25:48.738Z,93115.28
2023-04-06T02:28:16.758Z,93116.72
2023-04-06T02:30:44.714Z,93117.75
2023-04-06T02:33:13.297Z,93120.34
2023-04-06T02:35:46.151Z,93118.91
2023-04-06T02:38:14.319Z,93114.47
2023-04-06T02:40:42.300Z,93114.50
2023-04-06T02:43:25.981Z,93114.06
2023-04-06T02:46:02.311Z,93102.59
2023-04-06T02:48:32.937Z,93116.50
2023-04-06T02:51:01.208Z,93117.56
2023-04-06T02:56:08.700Z,93103.81
2023-04-06T02:58:47.266Z,93108.66
2023-04-06T03:01:16.182Z,93109.84
2023-04-06T03:03:44.858Z,93116.09
2023-04-06T03:06:20.194Z,93118.09
2023-04-06T03:08:50.383Z,93119.94
2023-04-06T03:11:18.473Z,93116.97
2023-04-06T03:13:46.697Z,93112.34
2023-04-06T03:16:14.823Z,93115.16
2023-04-06T03:18:45.846Z,93114.75
2023-04-06T03:21:17.939Z,93116.56
2023-04-06T03:23:52.232Z,93104.81
2023-04-06T03:26:20.662Z,93114.75
2023-04-06T03:28:48.592Z,93114.31
2023-04-06T03:31:17.777Z,93127.06
2023-04-06T03:33:52.105Z,93120.44
2023-04-06T03:36:24.946Z,93126.88
2023-04-06T03:38:54.887Z,93120.44
2023-04-06T03:41:23.117Z,93121.91
2023-04-06T03:44:01.040Z,93118.44
2023-04-06T03:46:29.176Z,93123.34
2023-04-06T03:48:59.677Z,93117.91
2023-04-06T03:51:28.887Z,93116.09
2023-04-06T03:53:56.877Z,93116.72
2023-04-06T03:56:24.996Z,93123.38
2023-04-06T03:58:54.795Z,93116.16
2023-04-06T04:01:23.074Z,93105.84
2023-04-06T04:03:52.780Z,93115.31
2023-04-06T04:06:20.959Z,93113.50
2023-04-06T04:08:48.907Z,93129.47
2023-04-06T04:11:17.119Z,93119.59
2023-04-06T04:13:47.766Z,93124.84
2023-04-06T04:16:16.159Z,93111.53
2023-04-06T04:18:44.928Z,93119.78
2023-04-06T04:21:12.864Z,93102.81
2023-04-06T04:23:41.118Z,93116.16
2023-04-06T04:26:09.734Z,93119.75
2023-04-06T04:28:37.877Z,93119.34
2023-04-06T04:31:05.889Z,93120.34
2023-04-06T04:33:36.176Z,93112.88
2023-04-06T04:36:11.350Z,93122.19
2023-04-06T04:38:43.147Z,93114.31
2023-04-06T04:41:12.077Z,93107.25
2023-04-06T04:43:43.405Z,93112.94
2023-04-06T04:46:13.504Z,93113.31
2023-04-06T04:48:44.306Z,93113.91
2023-04-06T04:51:12.297Z,93109.88
2023-04-06T04:54:01.085Z,93112.75
2023-04-06T04:56:32.267Z,93098.59
2023-04-06T04:59:36.850Z,93117.19
2023-04-06T05:02:14.004Z,93116.97
2023-04-06T05:04:52.130Z,93114.56
2023-04-06T05:07:25.128Z,93118.59
2023-04-06T05:09:55.872Z,93121.81
2023-04-06T05:12:28.476Z,93096.56
2023-04-06T05:15:06.317Z,93108.25
2023-04-06T05:17:35.223Z,93107.59
2023-04-06T05:20:04.000Z,93109.78
2023-04-06T05:22:36.709Z,93110.16
2023-04-06T05:25:09.603Z,93116.41
2023-04-06T05:27:38.712Z,93105.63
2023-04-06T05:30:11.868Z,93112.88
2023-04-06T05:32:46.893Z,93109.81
2023-04-06T05:35:16.057Z,93104.31
2023-04-06T05:37:47.565Z,93107.66
2023-04-06T05:40:16.664Z,93091.66
2023-04-06T05:42:44.607Z,93103.94
2023-04-06T05:45:18.006Z,93090.06
2023-04-06T05:47:50.223Z,93085.75
2023-04-06T05:50:28.091Z,93089.88
2023-04-06T05:52:57.837Z,93084.09
2023-04-06T05:55:30.975Z,93083.44
2023-04-06T05:58:20.064Z,93085.25
2023-04-06T06:00:49.903Z,93074.38
2023-04-06T06:03:20.807Z,93073.31
2023-04-06T06:05:53.541Z,93040.41
2023-04-06T06:08:30.888Z,93088.19
2023-04-06T06:11:01.369Z,93074.97
2023-04-06T06:13:29.487Z,93085.81
2023-04-06T06:15:58.301Z,93082.38
2023-04-06T06:18:27.596Z,93077.53
2023-04-06T06:20:57.235Z,93083.81
2023-04-06T06:23:25.139Z,93063.41
2023-04-06T06:25:55.585Z,93063.81
2023-04-06T06:28:26.535Z,93059.31
2023-04-06T06:30:54.621Z,93050.59
2023-04-06T06:33:27.450Z,93042.28
2023-04-06T06:35:57.133Z,93049.50
2023-04-06T06:38:25.244Z,93045.16
2023-04-06T06:40:54.502Z,93058.13
2023-04-06T06:43:25.027Z,93046.56
2023-04-06T06:46:07.746Z,93053.56
2023-04-06T06:48:36.117Z,93054.69
2023-04-06T06:51:04.296Z,93051.50
2023-04-06T06:53:32.389Z,93053.94
2023-04-06T06:56:00.619Z,93049.53
2023-04-06T06:58:28.610Z,93049.06
2023-04-06T07:01:00.511Z,93042.03
2023-04-06T07:03:31.219Z,93031.88
2023-04-06T07:05:59.232Z,93043.22
2023-04-06T07:08:27.410Z,93039.19
2023-04-06T07:10:57.697Z,93054.78
2023-04-06T07:13:27.977Z,93045.69
2023-04-06T07:15:58.792Z,93043.34
2023-04-06T07:18:27.069Z,93039.41
2023-04-06T07:20:55.302Z,93042.16
2023-04-06T07:23:23.653Z,93036.94
2023-04-06T07:25:53.606Z,93034.25
2023-04-06T07:28:22.000Z,93043.34
2023-04-06T07:30:50.044Z,93039.63
2023-04-06T07:33:18.641Z,93038.28
2023-04-06T07:35:47.618Z,93036.00
2023-04-06T07:38:16.406Z,93030.94
2023-04-06T07:40:44.750Z,93030.13
2023-04-06T07:43:13.066Z,93029.97
2023-04-06T07:45:41.264Z,93025.78
2023-04-06T07:48:09.534Z,93025.31
2023-04-06T07:50:37.885Z,93018.19
2023-04-06T07:53:06.924Z,93036.31
2023-04-06T07:55:36.565Z,93024.00
2023-04-06T07:58:04.576Z,93031.97
2023-04-06T08:00:32.999Z,93037.34
2023-04-06T08:03:00.952Z,93042.28
2023-04-06T08:05:29.144Z,93036.97
2023-04-06T08:07:57.119Z,93047.41
2023-04-06T08:10:25.245Z,93040.50
2023-04-06T08:12:54.067Z,93034.50
2023-04-06T08:15:22.449Z,93035.25
2023-04-06T08:17:50.536Z,93037.97
2023-04-06T08:20:18.590Z,93026.09
2023-04-06T08:22:46.777Z,93040.66
2023-04-06T08:25:15.130Z,93048.25
2023-04-06T08:27:43.117Z,93039.69
2023-04-06T08:30:11.482Z,93045.41
2023-04-06T08:32:39.714Z,93039.81
2023-04-06T08:35:08.134Z,93040.03
2023-04-06T08:37:36.206Z,93043.28
2023-04-06T08:40:04.696Z,93049.31
2023-04-06T08:42:34.799Z,93041.69
2023-04-06T08:45:03.326Z,93044.09
2023-04-06T08:47:31.453Z,93042.22
2023-04-06T08:50:04.460Z,93043.53
2023-04-06T08:52:35.230Z,93045.69
2023-04-06T08:55:03.387Z,93040.75
2023-04-06T08:57:32.449Z,93029.91
2023-04-06T09:00:02.553Z,93037.44
2023-04-06T09:02:30.614Z,93031.78
2023-04-06T09:04:59.274Z,93028.84
2023-04-06T09:07:28.440Z,93031.19
2023-04-06T09:09:56.426Z,93029.69
2023-04-06T09:12:29.524Z,93040.03
2023-04-06T09:14:59.113Z,93049.16
2023-04-06T09:17:33.943Z,93046.63
2023-04-06T09:20:04.039Z,93039.88
2023-04-06T09:22:39.115Z,93030.22
2023-04-06T09:25:08.088Z,93020.78
2023-04-06T09:27:38.338Z,93028.59
2023-04-06T09:30:18.011Z,93023.06
2023-04-06T09:32:56.967Z,93020.75
2023-04-06T09:35:27.801Z,93034.03
2023-04-06T09:37:56.628Z,93012.28
2023-04-06T09:40:25.644Z,93039.31
2023-04-06T09:42:55.594Z,93038.09
2023-04-06T09:45:23.633Z,93038.13
2023-04-06T09:47:55.312Z,93036.03
2023-04-06T09:50:25.924Z,93030.38
2023-04-06T09:52:58.148Z,93030.53
2023-04-06T09:55:36.344Z,93028.53
2023-04-06T09:58:10.742Z,93020.44
2023-04-06T10:00:54.524Z,93025.69
2023-04-06T10:03:48.968Z,93015.63
2023-04-06T10:06:22.328Z,93023.41
2023-04-06T10:08:55.390Z,93015.94
2023-04-06T10:11:24.221Z,93020.66
2023-04-06T10:13:52.525Z,93017.75
2023-04-06T10:16:20.705Z,93011.59
2023-04-06T10:18:55.674Z,93016.72
2023-04-06T10:21:28.041Z,93014.56
2023-04-06T10:24:00.873Z,93025.34
2023-04-06T10:26:29.243Z,93015.19
2023-04-06T10:29:05.109Z,93025.53
2023-04-06T10:31:33.864Z,93021.41
2023-04-06T10:34:03.843Z,93017.88
2023-04-06T10:36:36.062Z,93027.16
2023-04-06T10:39:06.030Z,93016.53
2023-04-06T10:41:42.462Z,93021.38
2023-04-06T10:44:21.744Z,93008.03
2023-04-06T10:47:02.066Z,93003.09
2023-04-06T10:49:30.203Z,93014.44
2023-04-06T10:51:59.803Z,93009.16
2023-04-06T10:54:29.176Z,93005.50
2023-04-06T10:56:57.787Z,93002.44
2023-04-06T10:59:28.724Z,92999.41
2023-04-06T11:01:57.224Z,92999.06
2023-04-06T11:04:26.697Z,93000.44
2023-04-06T11:06:56.279Z,93001.47
2023-04-06T11:09:28.536Z,92992.59
2023-04-06T11:11:57.429Z,92988.44
2023-04-06T11:14:25.425Z,92990.44
2023-04-06T11:16:53.657Z,92999.41
2023-04-06T11:19:21.861Z,92981.09
2023-04-06T11:21:50.946Z,92986.38
2023-04-06T11:24:26.212Z,92986.41
2023-04-06T11:26:56.444Z,92970.97
2023-04-06T11:29:26.722Z,92992.53
2023-04-06T11:31:59.815Z,92983.75
2023-04-06T11:34:30.196Z,92998.75
2023-04-06T11:37:00.637Z,92999.31
2023-04-06T11:39:29.838Z,92991.25
2023-04-06T11:42:03.581Z,92997.66
2023-04-06T11:44:39.973Z,93000.72
2023-04-06T11:47:10.189Z,92998.56
2023-04-06T11:49:43.232Z,92997.84
2023-04-06T11:52:20.278Z,92999.81
2023-04-06T11:54:50.604Z,92998.16
2023-04-06T11:57:20.725Z,92996.25
2023-04-06T11:59:48.960Z,93000.00
2023-04-06T12:02:17.191Z,92988.16
2023-04-06T12:04:46.097Z,92992.72
2023-04-06T12:07:14.191Z,92992.38
2023-04-06T12:09:44.521Z,92992.91
2023-04-06T12:12:12.606Z,92998.44
2023-04-06T12:14:40.671Z,92985.03
2023-04-06T12:17:08.955Z,92999.06
2023-04-06T12:19:37.095Z,92996.69
2023-04-06T12:22:05.679Z,92986.94
2023-04-06T12:24:34.293Z,92982.53
2023-04-06T12:27:09.556Z,93001.47
2023-04-06T12:29:39.646Z,92989.94
2023-04-06T12:32:07.501Z,92985.84
2023-04-06T12:34:36.070Z,92990.44
2023-04-06T12:37:04.387Z,92982.03
2023-04-06T12:39:32.868Z,92985.31
2023-04-06T12:42:00.927Z,92984.09
2023-04-06T12:44:28.921Z,92966.94
2023-04-06T12:46:57.514Z,92968.75
2023-04-06T12:49:25.773Z,92971.28
2023-04-06T12:51:54.536Z,92964.84
2023-04-06T12:54:22.852Z,92967.59
2023-04-06T12:56:50.951Z,92965.50
2023-04-06T12:59:19.347Z,92966.00
2023-04-06T13:01:48.133Z,92954.91
2023-04-06T13:04:16.474Z,92967.81
2023-04-06T13:06:44.495Z,92973.56
2023-04-06T13:09:12.865Z,92974.63
2023-04-06T13:11:42.598Z,92967.03
2023-04-06T13:14:11.113Z,92961.59
2023-04-06T13:16:39.264Z,92962.09
2023-04-06T13:19:07.817Z,92939.63
2023-04-06T13:21:35.891Z,92953.25
2023-04-06T13:24:04.146Z,92961.53
2023-04-06T13:26:32.071Z,92960.13
2023-04-06T13:29:02.017Z,92963.41
2023-04-06T13:31:30.770Z,92958.41
2023-04-06T13:33:58.931Z,92961.34
2023-04-06T13:36:28.043Z,92942.63
2023-04-06T13:38:56.896Z,92962.25
2023-04-06T13:41:27.678Z,92949.06
2023-04-06T13:43:56.336Z,92952.22
2023-04-06T13:46:25.518Z,92953.28
2023-04-06T13:48:56.137Z,92954.41
2023-04-06T13:51:24.304Z,92953.75
2023-04-06T13:53:54.204Z,92950.84
2023-04-06T13:56:22.415Z,92944.31
2023-04-06T13:58:50.372Z,92948.81
2023-04-06T14:01:18.761Z,92945.84
2023-04-06T14:03:49.006Z,92936.63
2023-04-06T14:08:48.806Z,92944.94
2023-04-06T14:11:17.547Z,92942.22
2023-04-06T14:13:46.030Z,92938.88
2023-04-06T14:16:14.661Z,92952.09
2023-04-06T14:18:44.096Z,92943.66
2023-04-06T14:21:12.394Z,92948.44
2023-04-06T14:23:40.873Z,92942.41
2023-04-06T14:26:09.944Z,92941.41
2023-04-06T14:28:40.505Z,92940.03
2023-04-06T14:31:16.778Z,92953.09
2023-04-06T14:33:46.540Z,92900.69
2023-04-06T14:36:15.441Z,92954.50
2023-04-06T14:38:45.216Z,92959.13
2023-04-06T14:41:21.143Z,92950.72
2023-04-06T14:43:49.830Z,92951.78
2023-04-06T14:46:18.178Z,92943.41
2023-04-06T14:48:47.601Z,92947.41
2023-04-06T14:51:16.266Z,92933.34
2023-04-06T14:53:45.067Z,92956.03
2023-04-06T14:56:13.453Z,92953.13
2023-04-06T14:58:42.315Z,92963.97
2023-04-06T15:01:10.954Z,92960.03
2023-04-06T15:03:39.656Z,92959.59
2023-04-06T15:06:16.559Z,92958.53
2023-04-06T15:08:45.978Z,92957.34
2023-04-06T15:11:14.663Z,92956.44
2023-04-06T15:13:43.775Z,92965.06
2023-04-06T15:16:12.906Z,92960.88
2023-04-06T15:18:42.010Z,92963.97
2023-04-06T15:21:10.256Z,92974.66
2023-04-06T15:23:38.916Z,92970.56
2023-04-06T15:26:07.235Z,92966.41
2023-04-06T15:28:35.711Z,92973.03
2023-04-06T15:31:07.447Z,92968.72
2023-04-06T15:33:36.181Z,92983.19
2023-04-06T15:36:10.170Z,92980.13
2023-04-06T15:38:38.910Z,92981.03
2023-04-06T15:41:07.299Z,92979.78
2023-04-06T15:43:36.096Z,92999.97
2023-04-06T15:46:04.784Z,93004.63
2023-04-06T15:48:35.140Z,92996.22
2023-04-06T15:51:03.824Z,93001.41
2023-04-06T15:53:32.973Z,93003.97
2023-04-06T15:56:02.135Z,92977.22
2023-04-06T15:58:30.708Z,93014.19
2023-04-06T16:00:58.801Z,93013.97
2023-04-06T16:03:27.469Z,92992.97
2023-04-06T16:06:08.089Z,93005.97
2023-04-06T16:08:39.570Z,93013.34
2023-04-06T16:11:07.510Z,93010.13
2023-04-06T16:13:36.536Z,93013.09
2023-04-06T16:16:05.959Z,93016.78
2023-04-06T16:18:36.190Z,93022.16
2023-04-06T16:21:05.666Z,93023.44
2023-04-06T16:23:34.259Z,93026.19
2023-04-06T16:26:02.691Z,93021.13
2023-04-06T16:28:34.008Z,93033.25
2023-04-06T16:31:02.075Z,93031.13
2023-04-06T16:33:30.043Z,93027.53
2023-04-06T16:35:58.423Z,93031.03
2023-04-06T16:38:30.327Z,93029.03
2023-04-06T16:41:02.552Z,93031.91
2023-04-06T16:43:30.545Z,93028.44
2023-04-06T16:45:58.559Z,93032.88
2023-04-06T16:48:26.718Z,93034.09
2023-04-06T16:50:55.827Z,93053.38
2023-04-06T16:53:23.759Z,93050.00
2023-04-06T16:55:51.750Z,93052.50
2023-04-06T16:58:19.783Z,93058.19
2023-04-06T17:00:47.956Z,93058.88
2023-04-06T17:03:16.102Z,93057.47
2023-04-06T17:05:45.512Z,93058.66
2023-04-06T17:08:13.488Z,93066.19
2023-04-06T17:10:47.002Z,93071.47
2023-04-06T17:13:26.647Z,93062.31
2023-04-06T17:15:54.580Z,93078.19
2023-04-06T17:18:22.548Z,93082.59
2023-04-06T17:20:50.667Z,93079.78
2023-04-06T17:23:18.724Z,93092.47
2023-04-06T17:25:46.812Z,93083.53
2023-04-06T17:28:14.844Z,93088.22
2023-04-06T17:30:43.012Z,93095.41
2023-04-06T17:33:11.121Z,93078.94
2023-04-06T17:35:39.164Z,93094.78
2023-04-06T17:38:08.422Z,93101.13
2023-04-06T17:40:37.876Z,93106.66
2023-04-06T17:43:05.891Z,93103.75
2023-04-06T17:45:33.978Z,93108.66
2023-04-06T17:48:02.052Z,93121.31
2023-04-06T17:50:39.285Z,93077.38
2023-04-06T17:53:08.741Z,93110.00
2023-04-06T17:55:37.170Z,93124.03
2023-04-06T17:58:05.929Z,93124.03
2023-04-06T18:00:34.443Z,93117.72
2023-04-06T18:03:03.180Z,93124.69
2023-04-06T18:05:31.611Z,93129.75
2023-04-06T18:08:00.022Z,93128.91
2023-04-06T18:10:28.471Z,93143.81
2023-04-06T18:12:57.558Z,93145.50
2023-04-06T18:15:27.099Z,93137.59
2023-04-06T18:17:55.993Z,93145.16
2023-04-06T18:20:24.493Z,93151.53
2023-04-06T18:22:53.178Z,93155.84
2023-04-06T18:25:21.737Z,93155.38
2023-04-06T18:27:51.110Z,93159.53
2023-04-06T18:30:20.466Z,93157.75
2023-04-06T18:32:49.077Z,93158.38
2023-04-06T18:35:17.052Z,93156.72
2023-04-06T18:37:45.402Z,93155.06
2023-04-06T18:40:46.890Z,93164.25
2023-04-06T18:43:16.347Z,93167.91
2023-04-06T18:45:45.138Z,93172.22
2023-04-06T18:48:14.422Z,93172.97
2023-04-06T18:50:52.198Z,93177.88
2023-04-06T18:53:21.522Z,93179.84
2023-04-06T18:55:51.465Z,93137.72
2023-04-06T18:58:19.982Z,93181.50
2023-04-06T19:00:48.550Z,93173.66
2023-04-06T19:03:18.645Z,93168.25
2023-04-06T19:05:48.929Z,93187.75
2023-04-06T19:08:17.235Z,93177.22
2023-04-06T19:10:45.862Z,93173.63
2023-04-06T19:13:14.842Z,93182.41
2023-04-06T19:15:43.321Z,93180.13
2023-04-06T19:18:12.138Z,93187.97
2023-04-06T19:20:40.236Z,93190.00
2023-04-06T19:23:09.749Z,93178.41
2023-04-06T19:25:39.389Z,93180.94
2023-04-06T19:28:09.324Z,93192.94
2023-04-06T19:30:38.164Z,93186.03
2023-04-06T19:33:06.311Z,93187.44
2023-04-06T19:35:34.615Z,93191.81
2023-04-06T19:38:02.810Z,93191.16
2023-04-06T19:40:31.057Z,93201.31
2023-04-06T19:42:59.576Z,93199.28
2023-04-06T19:45:30.098Z,93200.94
2023-04-06T19:47:58.687Z,93197.50
2023-04-06T19:50:27.213Z,93199.50
2023-04-06T19:52:56.672Z,93202.31
2023-04-06T19:55:25.149Z,93192.19
2023-04-06T19:57:53.333Z,93204.16
2023-04-06T20:00:21.846Z,93196.25
2023-04-06T20:02:50.092Z,93211.06
2023-04-06T20:05:18.544Z,93212.41
2023-04-06T20:07:47.938Z,93214.34
2023-04-06T20:10:17.084Z,93203.28
2023-04-06T20:12:45.305Z,93206.25
2023-04-06T20:15:13.470Z,93215.00
2023-04-06T20:17:43.112Z,93218.19
2023-04-06T20:20:12.354Z,93211.47
2023-04-06T20:22:42.100Z,93205.34
2023-04-06T20:25:11.868Z,93214.03
2023-04-06T20:27:40.234Z,93210.81
2023-04-06T20:30:09.271Z,93209.34
2023-04-06T20:32:38.808Z,93215.03
2023-04-06T20:35:06.653Z,93218.13
2023-04-06T20:37:38.089Z,93220.56
2023-04-06T20:40:09.531Z,93221.00
2023-04-06T20:42:37.640Z,93214.75
2023-04-06T20:45:06.975Z,93215.22
2023-04-06T20:47:35.224Z,93219.53
2023-04-06T20:50:04.168Z,93218.94
2023-04-06T20:52:32.377Z,93221.03
2023-04-06T20:55:01.533Z,93226.84
2023-04-06T20:57:29.488Z,93204.72
2023-04-06T20:59:57.249Z,93234.38
2023-04-06T21:02:25.609Z,93241.75
2023-04-06T21:04:53.829Z,93243.25
2023-04-06T21:07:22.262Z,93235.97
2023-04-06T21:09:50.939Z,93238.81
2023-04-06T21:12:19.754Z,93238.59
2023-04-06T21:14:47.925Z,93238.84
2023-04-06T21:17:15.979Z,93245.53
2023-04-06T21:19:43.914Z,93241.13
2023-04-06T21:22:12.134Z,93250.22
2023-04-06T21:24:42.092Z,93255.47
2023-04-06T21:27:13.174Z,93230.22
2023-04-06T21:29:41.095Z,93242.53
2023-04-06T21:32:09.090Z,93242.31
2023-04-06T21:34:36.996Z,93244.31
2023-04-06T21:37:05.063Z,93243.13
2023-04-06T21:39:33.125Z,93245.50
2023-04-06T21:42:01.024Z,93236.41
2023-04-06T21:44:31.032Z,93247.75
2023-04-06T21:46:59.665Z,93237.56
2023-04-06T21:49:27.610Z,93239.97
2023-04-06T21:51:55.553Z,93203.81
2023-04-06T21:54:23.555Z,93223.88
2023-04-06T21:56:51.508Z,93236.16
2023-04-06T21:59:20.924Z,93242.34
2023-04-06T22:17:02.017Z,93225.13
2023-04-06T22:19:30.329Z,93230.34
2023-04-06T22:21:58.188Z,93231.94
2023-04-06T22:24:26.822Z,93234.19
2023-04-06T22:26:54.734Z,93222.81
2023-04-06T22:29:23.034Z,93232.31
2023-04-06T22:31:51.000Z,93231.88
2023-04-06T22:34:19.152Z,93226.22
2023-04-06T22:36:47.388Z,93227.88
2023-04-06T22:39:15.945Z,93220.38
2023-04-06T22:41:43.959Z,93219.75
2023-04-06T22:44:11.874Z,93220.78
2023-04-06T22:46:39.789Z,93218.38
2023-04-06T22:49:07.716Z,93223.22
2023-04-06T22:51:35.734Z,93229.53
2023-04-06T22:54:03.703Z,93222.84
2023-04-06T22:56:31.570Z,93229.09
2023-04-06T22:58:59.557Z,93222.03
2023-04-06T23:01:27.453Z,93226.69
2023-04-06T23:03:56.775Z,93209.69
2023-04-06T23:06:24.853Z,93223.69
2023-04-06T23:08:52.620Z,93216.00
2023-04-06T23:11:21.374Z,93226.72
2023-04-06T23:13:49.286Z,93220.50
2023-04-06T23:16:17.257Z,93222.50
2023-04-06T23:18:45.658Z,93218.22
2023-04-06T23:21:13.783Z,93214.16
2023-04-06T23:23:41.786Z,93212.34
2023-04-06T23:26:09.809Z,93219.63
2023-04-06T23:28:37.782Z,93221.69
2023-04-06T23:31:06.243Z,93222.91
2023-04-06T23:33:34.119Z,93217.69
2023-04-06T23:36:02.312Z,93214.84
2023-04-06T23:38:30.638Z,93222.06
2023-04-06T23:40:58.546Z,93220.66
2023-04-06T23:43:26.745Z,93223.06
2023-04-06T23:45:54.682Z,93222.66
2023-04-06T23:48:22.829Z,93221.66
2023-04-06T23:50:50.903Z,93213.16
2023-04-06T23:53:18.930Z,93210.13
2023-04-06T23:55:46.871Z,93212.53
2023-04-06T23:58:15.054Z,93215.13
